To NAV CANADA Home Page Login to a new session Search on AWWS site Feedback and Comments Disclaimer Vers la page française équivalente Tips FAQ What's new on the site To the Forecasts and Observations / NOTAM section To "File a Flight Plan" website Publications and other links Update of the User's profile FIC Telephone Numbers My Weather Data Folder Route Weather Data Regional Weather Data Local Weather Data To the Forecasts and Observations / NOTAM section
Request Generated 06/26/2017 at 22:34:43 UTC . Weather information available at that time is displayed.

METAR/TAF

TALOYOAK/NU    

METAR CYYH 262200Z 21009KT 15SM FEW020 SCT040 SCT100 SCT220 10/04
A3012 RMK CF1SC2AC1CI1 CI TR SLP203=
METAR CYYH 262100Z VRB04KT 15SM FEW020 SCT040 SCT090 SCT220 12/04
A3012 RMK CF2SC1AC1CI1 CI TR SLP203=
METAR CYYH 262000Z 06003KT 15SM FEW020 FEW040 FEW090 FEW220 11/04
A3013 RMK CF2SC1AC1CI1 SC TR AC TR CI TR SLP205=

TAF AMD CYYH 261906Z 2619/2706 VRB03KT P6SM SCT020
RMK NXT FCST BY 270000Z=
Your time UTC time
Weather data provided by Environment Canada and NAV CANADA